Time;durP1;ratioP1;P1;durP2;ratioP2;P2;SDS_P1;SDS_P2;PMS_P1;PMS_P2;Temp;Humidity;BMP_temperature;BMP_pressure;BME280_temperature;BME280_humidity;BME280_pressure;Samples;Min_cycle;Max_cycle;Signal;HPM_P1;HPM_P2
2021/05/06 00:07:23;;;;;;;6.72;2.70;;;18.10;96.40;;;;;;5015356;28;20054;-46
2021/05/06 00:34:24;;;;;;;9.82;2.25;;;18.00;96.50;;;;;;5025996;28;20052;-47
2021/05/06 00:36:52;;;;;;;6.18;2.33;;;18.00;96.50;;;;;;5013489;28;20061;-48
2021/05/06 00:39:30;;;;;;;7.78;3.55;;;18.00;96.70;;;;;;5020544;28;20137;-46
2021/05/06 00:42:21;;;;;;;3.72;2.00;;;17.90;96.60;;;;;;5032974;28;20092;-53
2021/05/06 01:03:16;;;;;;;4.93;2.58;;;17.90;97.10;;;;;;5028085;28;20054;-47
2021/05/06 01:06:19;;;;;;;3.97;2.80;;;17.90;97.10;;;;;;5014417;28;20110;-47
2021/05/06 01:11:47;;;;;;;7.65;2.58;;;17.80;97.10;;;;;;5012768;28;20054;-46
2021/05/06 01:14:16;;;;;;;6.15;3.03;;;17.80;97.10;;;;;;5024494;28;20559;-46
2021/05/06 01:17:02;;;;;;;7.00;2.53;;;17.90;97.20;;;;;;5013800;28;20425;-49
2021/05/06 01:19:29;;;;;;;4.88;2.55;;;17.80;97.30;;;;;;5023547;28;20149;-47
2021/05/06 01:21:57;;;;;;;5.40;2.22;;;17.80;97.30;;;;;;5012802;28;20125;-53
2021/05/06 01:24:25;;;;;;;5.70;3.35;;;17.80;97.30;;;;;;5013242;28;20045;-49
2021/05/06 01:29:33;;;;;;;6.18;2.65;;;17.80;97.50;;;;;;5012593;28;20045;-49
2021/05/06 01:32:17;;;;;;;5.07;2.53;;;17.80;97.40;;;;;;5012848;28;20400;-52
2021/05/06 01:34:50;;;;;;;3.85;2.10;;;17.80;97.50;;;;;;5023905;28;20054;-48
2021/05/06 01:37:23;;;;;;;9.10;2.92;;;17.80;97.60;;;;;;5013750;28;20061;-47
2021/05/06 01:42:37;;;;;;;9.98;2.60;;;17.70;97.90;;;;;;4997091;28;20050;-47
2021/05/06 01:45:43;;;;;;;7.18;3.22;;;17.70;98.10;;;;;;5021242;28;20069;-46
2021/05/06 01:48:23;;;;;;;5.35;2.80;;;17.70;98.00;;;;;;4998508;28;20046;-48
2021/05/06 01:59:01;;;;;;;7.00;2.90;;;17.60;98.20;;;;;;5022389;28;20056;-48
2021/05/06 02:01:29;;;;;;;6.82;3.13;;;17.50;98.30;;;;;;5028834;28;20046;-49
2021/05/06 02:03:56;;;;;;;7.88;3.45;;;17.50;98.40;;;;;;5022308;28;20136;-47
2021/05/06 02:06:24;;;;;;;5.70;3.13;;;17.50;98.40;;;;;;5012448;28;20049;-46
2021/05/06 02:08:51;;;;;;;10.13;3.22;;;17.50;98.40;;;;;;5033552;28;20042;-47
2021/05/06 02:11:19;;;;;;;5.57;3.08;;;17.40;98.40;;;;;;5030426;28;20458;-47
2021/05/06 02:14:02;;;;;;;6.45;3.30;;;17.40;98.50;;;;;;5008455;28;20407;-48
2021/05/06 02:16:38;;;;;;;9.23;2.58;;;17.40;98.50;;;;;;5012585;28;20504;-46
2021/05/06 02:19:08;;;;;;;6.68;3.45;;;17.40;98.50;;;;;;4995411;28;20500;-49
2021/05/06 02:21:39;;;;;;;11.45;3.58;;;17.40;98.70;;;;;;4995918;28;20046;-46
2021/05/06 02:24:07;;;;;;;3.85;3.10;;;17.30;98.70;;;;;;5023208;28;20053;-47
2021/05/06 02:26:35;;;;;;;8.55;3.67;;;17.30;98.70;;;;;;5011888;28;20041;-47
2021/05/06 02:29:03;;;;;;;5.28;2.70;;;17.30;98.70;;;;;;5022826;28;20080;-48
2021/05/06 02:31:30;;;;;;;8.75;3.25;;;17.30;98.80;;;;;;5012245;28;20061;-49
2021/05/06 02:33:57;;;;;;;6.53;3.38;;;17.30;98.90;;;;;;5023325;28;20554;-48
2021/05/06 02:36:25;;;;;;;8.05;3.17;;;17.30;99.00;;;;;;5013022;28;20123;-47
2021/05/06 02:38:53;;;;;;;5.07;2.90;;;17.30;99.00;;;;;;5001724;28;20045;-49
2021/05/06 02:41:20;;;;;;;6.00;2.88;;;17.20;99.10;;;;;;5010650;28;20082;-47
2021/05/06 02:43:47;;;;;;;8.88;2.70;;;17.20;99.20;;;;;;5022017;28;20566;-49
2021/05/06 02:46:15;;;;;;;9.20;3.60;;;17.20;99.10;;;;;;5014100;28;20137;-48
2021/05/06 02:48:42;;;;;;;7.93;2.85;;;17.20;99.20;;;;;;5019664;28;20049;-48
2021/05/06 02:51:10;;;;;;;4.57;2.45;;;17.20;99.20;;;;;;5015752;28;20054;-48
2021/05/06 02:53:44;;;;;;;9.23;3.28;;;17.20;99.30;;;;;;4999698;28;20404;-47
2021/05/06 02:56:38;;;;;;;7.40;3.55;;;17.20;99.40;;;;;;5028305;28;20587;-48
2021/05/06 03:04:12;;;;;;;9.13;3.47;;;17.10;99.60;;;;;;5016965;28;20189;-46
2021/05/06 03:06:51;;;;;;;6.00;3.53;;;17.10;99.60;;;;;;5011753;28;20054;-48
2021/05/06 03:09:37;;;;;;;6.72;3.80;;;17.10;99.60;;;;;;5002650;28;20108;-46
2021/05/06 03:23:06;;;;;;;5.65;3.00;;;17.00;99.80;;;;;;5037279;28;20077;-47
2021/05/06 03:25:33;;;;;;;5.57;3.17;;;17.00;99.70;;;;;;5022820;28;20515;-51
2021/05/06 03:30:44;;;;;;;7.85;2.78;;;16.90;99.90;;;;;;5016085;28;20045;-46
2021/05/06 04:27:31;;;;;;;7.00;3.80;;;17.10;99.90;;;;;;5029656;28;20087;-47
2021/05/06 04:38:03;;;;;;;4.93;2.60;;;17.80;99.80;;;;;;4999828;28;20520;-47
2021/05/06 04:56:13;;;;;;;9.73;3.03;;;18.70;98.30;;;;;;5018087;28;20050;-48
2021/05/06 05:06:50;;;;;;;4.35;2.58;;;19.30;97.60;;;;;;5014344;28;20389;-49
2021/05/06 05:12:26;;;;;;;7.90;4.10;;;19.50;97.20;;;;;;5030121;28;20041;-49
2021/05/06 05:17:42;;;;;;;5.65;3.40;;;19.80;97.10;;;;;;5017020;28;20037;-48
2021/05/06 05:25:34;;;;;;;5.67;3.40;;;20.10;96.50;;;;;;5012405;28;20064;-46
2021/05/06 05:28:04;;;;;;;8.98;3.40;;;20.20;96.50;;;;;;5015269;28;20049;-50
2021/05/06 05:30:34;;;;;;;6.68;3.88;;;20.30;96.20;;;;;;5021892;28;20049;-50
2021/05/06 05:33:08;;;;;;;4.75;2.72;;;20.30;96.10;;;;;;5016189;28;20128;-48
2021/05/06 05:35:43;;;;;;;5.32;2.97;;;20.10;96.10;;;;;;5029257;28;20136;-49
2021/05/06 05:38:16;;;;;;;6.28;2.63;;;20.20;96.10;;;;;;5019899;28;20046;-51
2021/05/06 05:54:47;;;;;;;11.75;3.28;;;20.50;94.90;;;;;;5020900;28;20084;-48
2021/05/06 05:57:14;;;;;;;6.07;2.42;;;20.20;95.30;;;;;;5012719;28;20053;-47
2021/05/06 05:59:43;;;;;;;9.10;2.92;;;20.30;95.70;;;;;;5006257;28;20104;-49
2021/05/06 06:02:10;;;;;;;4.80;2.47;;;20.40;95.90;;;;;;5012909;28;20077;-47
2021/05/06 06:04:38;;;;;;;4.38;2.33;;;20.70;95.60;;;;;;5022889;28;20046;-48
2021/05/06 06:07:06;;;;;;;4.72;2.90;;;20.90;95.30;;;;;;5028779;28;20053;-47
2021/05/06 06:09:33;;;;;;;4.15;2.60;;;21.00;94.80;;;;;;5023065;28;20046;-54
2021/05/06 06:12:00;;;;;;;7.80;2.97;;;21.20;94.80;;;;;;5028521;28;20052;-47
2021/05/06 06:17:04;;;;;;;4.60;2.78;;;21.40;93.90;;;;;;5032600;28;20380;-50
2021/05/06 06:19:35;;;;;;;8.25;2.55;;;21.30;93.30;;;;;;5039276;28;20053;-48
2021/05/06 06:22:09;;;;;;;5.75;2.50;;;21.50;93.40;;;;;;5012364;28;20042;-48
2021/05/06 06:24:36;;;;;;;5.32;2.70;;;21.60;93.10;;;;;;5001202;28;20511;-47
2021/05/06 06:27:04;;;;;;;7.63;3.13;;;21.70;92.80;;;;;;5011985;28;20050;-49
2021/05/06 06:29:33;;;;;;;4.75;2.40;;;22.00;92.50;;;;;;5024009;28;20058;-50
2021/05/06 06:32:03;;;;;;;6.93;2.65;;;22.20;91.90;;;;;;5011856;28;20492;-50
2021/05/06 06:34:30;;;;;;;15.77;2.72;;;22.50;91.50;;;;;;5023592;28;20077;-47
2021/05/06 06:36:58;;;;;;;5.88;2.90;;;22.80;91.10;;;;;;5011891;28;20053;-52
2021/05/06 06:39:27;;;;;;;4.90;2.78;;;22.90;90.10;;;;;;5022858;28;20053;-49
2021/05/06 06:41:55;;;;;;;5.03;2.60;;;23.00;90.00;;;;;;4995649;28;20496;-47
2021/05/06 06:44:33;;;;;;;8.68;3.22;;;23.20;89.10;;;;;;5024316;28;20056;-47
2021/05/06 06:47:01;;;;;;;6.13;2.60;;;23.30;88.50;;;;;;5032220;28;20045;-48
2021/05/06 06:49:34;;;;;;;4.00;2.80;;;23.40;87.70;;;;;;5030979;28;20049;-49
2021/05/06 06:52:03;;;;;;;6.20;2.58;;;23.60;86.30;;;;;;5016431;28;20187;-47
2021/05/06 06:54:30;;;;;;;6.13;2.33;;;23.70;86.90;;;;;;5035180;28;20073;-47
2021/05/06 06:57:03;;;;;;;5.38;2.42;;;23.90;86.60;;;;;;5018588;28;20049;-48
2021/05/06 06:59:31;;;;;;;7.35;2.97;;;23.70;85.80;;;;;;5027242;28;20042;-47
2021/05/06 07:01:59;;;;;;;6.85;2.63;;;23.90;85.90;;;;;;5031829;28;20208;-49
2021/05/06 07:04:28;;;;;;;4.57;2.50;;;24.10;85.40;;;;;;5025483;28;20551;-48
2021/05/06 07:06:56;;;;;;;3.75;1.98;;;24.20;85.00;;;;;;5034812;28;20042;-48
2021/05/06 07:09:25;;;;;;;6.57;2.15;;;24.40;83.90;;;;;;5025396;28;20046;-47
2021/05/06 07:11:52;;;;;;;3.85;2.40;;;24.40;83.50;;;;;;5015494;28;20054;-47
2021/05/06 07:14:20;;;;;;;3.40;1.60;;;24.60;83.10;;;;;;5024718;28;20082;-50
2021/05/06 07:16:48;;;;;;;4.88;1.70;;;24.50;81.80;;;;;;5015169;28;20054;-47
2021/05/06 07:19:16;;;;;;;4.07;2.35;;;24.50;80.90;;;;;;5004031;28;20046;-48
2021/05/06 07:21:43;;;;;;;2.95;1.88;;;24.50;81.80;;;;;;5015336;28;20054;-47
2021/05/06 07:24:13;;;;;;;3.25;1.67;;;24.80;80.70;;;;;;5024273;28;20050;-47
2021/05/06 07:26:40;;;;;;;2.42;1.45;;;25.00;79.80;;;;;;5018443;28;20056;-49
2021/05/06 07:29:09;;;;;;;4.30;1.60;;;25.10;79.00;;;;;;5008605;28;20045;-49
2021/05/06 07:31:37;;;;;;;3.55;1.83;;;25.30;78.30;;;;;;4998641;28;20077;-49
2021/05/06 07:34:05;;;;;;;4.72;2.13;;;25.40;78.10;;;;;;5004102;28;20133;-47
2021/05/06 07:36:34;;;;;;;5.13;1.90;;;25.50;78.00;;;;;;4998696;28;20049;-47
2021/05/06 07:39:04;;;;;;;3.83;1.55;;;25.50;75.10;;;;;;5036439;28;20046;-47
2021/05/06 07:41:33;;;;;;;2.60;1.90;;;25.20;74.90;;;;;;5015833;28;20058;-46
2021/05/06 07:44:01;;;;;;;3.20;1.60;;;25.40;76.20;;;;;;5005702;28;20052;-47
2021/05/06 07:46:30;;;;;;;4.13;2.22;;;25.50;75.90;;;;;;5018559;28;20046;-47
2021/05/06 07:48:59;;;;;;;2.28;1.50;;;25.60;75.00;;;;;;5028876;28;20081;-47
2021/05/06 07:51:28;;;;;;;3.22;1.52;;;25.70;74.20;;;;;;5014817;28;20049;-47
2021/05/06 07:54:04;;;;;;;11.38;2.10;;;25.80;74.00;;;;;;5036308;28;20109;-49
2021/05/06 07:56:33;;;;;;;3.20;2.20;;;25.80;73.70;;;;;;5014685;28;20054;-47
2021/05/06 07:59:01;;;;;;;3.70;1.63;;;25.60;74.50;;;;;;5005421;28;20492;-48
2021/05/06 08:01:28;;;;;;;3.97;1.83;;;25.70;74.50;;;;;;5035169;28;20053;-47
2021/05/06 08:03:57;;;;;;;3.70;1.50;;;25.80;74.30;;;;;;5028047;28;20049;-47
2021/05/06 08:06:25;;;;;;;3.78;1.40;;;25.80;74.10;;;;;;5031681;28;20046;-47
2021/05/06 08:08:52;;;;;;;2.42;1.42;;;25.40;74.00;;;;;;5024587;28;20176;-47
2021/05/06 08:11:21;;;;;;;5.85;1.70;;;24.90;74.30;;;;;;5016070;28;20100;-47
2021/05/06 08:13:48;;;;;;;2.42;1.52;;;24.70;75.10;;;;;;5024510;28;20068;-48
2021/05/06 08:16:16;;;;;;;3.85;1.63;;;24.60;74.40;;;;;;5017383;28;20045;-46
2021/05/06 08:18:43;;;;;;;2.03;1.23;;;24.60;73.90;;;;;;5022096;28;20053;-48
2021/05/06 08:21:11;;;;;;;2.92;1.45;;;24.90;73.20;;;;;;5016525;28;20558;-48
2021/05/06 08:23:38;;;;;;;5.05;1.45;;;25.00;72.30;;;;;;5021401;28;20037;-49
2021/05/06 08:26:06;;;;;;;4.53;2.42;;;24.60;70.50;;;;;;5017480;28;20053;-47
2021/05/06 08:28:49;;;;;;;2.28;1.55;;;25.00;71.30;;;;;;5022896;28;20140;-46
2021/05/06 08:31:17;;;;;;;4.57;1.75;;;24.90;71.60;;;;;;5015900;28;20049;-48
2021/05/06 08:33:44;;;;;;;2.35;1.27;;;25.20;70.70;;;;;;5022097;28;20053;-48
2021/05/06 08:36:12;;;;;;;3.38;1.77;;;25.10;69.90;;;;;;5016420;28;20104;-47
2021/05/06 08:38:40;;;;;;;2.05;1.20;;;24.60;70.30;;;;;;5005270;28;20068;-46
2021/05/06 08:41:08;;;;;;;3.92;1.30;;;24.90;70.10;;;;;;5016783;28;20064;-47
2021/05/06 08:43:38;;;;;;;6.57;1.55;;;25.20;70.60;;;;;;5020736;28;20128;-47
2021/05/06 08:46:06;;;;;;;3.92;2.10;;;25.50;70.20;;;;;;5018201;28;20081;-49
2021/05/06 08:48:39;;;;;;;4.93;1.45;;;25.80;69.30;;;;;;5035526;28;20064;-48
2021/05/06 08:51:06;;;;;;;4.45;1.60;;;26.00;69.70;;;;;;5029952;28;20049;-51
2021/05/06 08:53:34;;;;;;;2.22;1.35;;;26.30;68.50;;;;;;5027079;28;20049;-48
2021/05/06 08:56:02;;;;;;;5.07;1.85;;;26.20;68.90;;;;;;5017349;28;20180;-51
2021/05/06 08:58:29;;;;;;;7.53;1.80;;;26.20;68.00;;;;;;5019775;28;20064;-52
2021/05/06 09:00:56;;;;;;;6.40;2.03;;;26.30;68.20;;;;;;5018843;28;20045;-48
2021/05/06 09:03:24;;;;;;;3.90;1.80;;;26.20;68.70;;;;;;5018620;28;20049;-50
2021/05/06 09:06:11;;;;;;;2.30;1.45;;;25.80;67.70;;;;;;5018624;28;20053;-48
2021/05/06 09:08:42;;;;;;;4.47;1.42;;;25.90;68.60;;;;;;5020705;28;20107;-48
2021/05/06 09:11:10;;;;;;;3.45;1.35;;;26.10;68.60;;;;;;4996764;28;20452;-48
2021/05/06 09:13:38;;;;;;;2.85;1.60;;;26.30;68.30;;;;;;5016880;28;20045;-48
2021/05/06 09:16:06;;;;;;;3.35;1.65;;;26.30;66.80;;;;;;5012936;28;20045;-48
2021/05/06 09:18:44;;;;;;;2.83;1.52;;;26.50;67.90;;;;;;5026758;28;20487;-48
2021/05/06 09:21:31;;;;;;;3.28;1.45;;;26.50;66.90;;;;;;5029123;28;20054;-49
2021/05/06 09:24:06;;;;;;;4.32;1.65;;;26.70;66.20;;;;;;5024697;28;20041;-48
2021/05/06 09:26:35;;;;;;;3.53;1.98;;;26.80;65.80;;;;;;5029564;28;20062;-49
2021/05/06 09:29:10;;;;;;;2.65;1.30;;;26.90;65.40;;;;;;5055833;28;20488;-50
2021/05/06 09:31:42;;;;;;;2.72;1.60;;;27.00;65.30;;;;;;5012977;28;20515;-49
2021/05/06 09:34:12;;;;;;;2.50;1.50;;;27.10;64.30;;;;;;5025183;28;20104;-53
2021/05/06 09:36:42;;;;;;;2.50;1.50;;;27.10;64.80;;;;;;4996832;28;20050;-48
2021/05/06 09:39:12;;;;;;;4.85;1.38;;;27.10;64.70;;;;;;5023402;28;20057;-50
2021/05/06 09:41:39;;;;;;;1.73;1.17;;;27.20;65.00;;;;;;5012439;28;20104;-49
2021/05/06 09:44:16;;;;;;;4.15;1.42;;;27.30;65.40;;;;;;5023630;28;20052;-49
2021/05/06 09:47:00;;;;;;;3.58;1.38;;;27.30;64.50;;;;;;5012673;28;20057;-48
2021/05/06 09:49:39;;;;;;;2.15;1.30;;;27.40;64.50;;;;;;5014662;28;20555;-49
2021/05/06 09:52:06;;;;;;;5.63;1.77;;;27.30;63.70;;;;;;5031636;28;20567;-50
2021/05/06 09:54:45;;;;;;;3.80;1.92;;;27.40;64.00;;;;;;5024248;28;20061;-49
2021/05/06 09:57:13;;;;;;;2.35;1.67;;;27.10;63.70;;;;;;5013979;28;20496;-49
2021/05/06 09:59:41;;;;;;;1.63;1.20;;;27.20;64.30;;;;;;5013396;28;20137;-49
2021/05/06 10:02:17;;;;;;;4.43;1.48;;;27.20;65.10;;;;;;5013589;28;20064;-48
2021/05/06 10:04:47;;;;;;;2.83;1.30;;;27.30;64.60;;;;;;4998131;28;20132;-48
2021/05/06 10:07:17;;;;;;;3.42;1.70;;;27.40;64.20;;;;;;5031193;28;20132;-50
2021/05/06 10:09:55;;;;;;;3.22;1.50;;;27.40;64.20;;;;;;5023565;28;20094;-51
2021/05/06 10:12:25;;;;;;;2.28;1.17;;;27.00;62.60;;;;;;5013712;28;20056;-48
2021/05/06 10:14:53;;;;;;;3.53;1.55;;;26.50;63.00;;;;;;5020820;28;20046;-48
2021/05/06 10:17:22;;;;;;;1.92;1.48;;;26.20;64.20;;;;;;5014935;28;20400;-48
2021/05/06 10:19:50;;;;;;;2.97;1.67;;;25.70;64.30;;;;;;5022577;28;20070;-48
2021/05/06 10:22:21;;;;;;;2.13;1.25;;;25.70;65.00;;;;;;5013204;28;20069;-48
2021/05/06 10:24:50;;;;;;;4.80;1.63;;;25.30;63.90;;;;;;5019577;28;20054;-49
2021/05/06 10:27:21;;;;;;;3.75;1.40;;;24.90;63.80;;;;;;4998928;28;20080;-53
2021/05/06 10:29:56;;;;;;;2.90;1.40;;;25.10;65.70;;;;;;5026676;28;20136;-48
2021/05/06 10:32:29;;;;;;;3.08;1.77;;;25.40;65.60;;;;;;5017891;28;20053;-47
2021/05/06 10:35:05;;;;;;;3.92;1.73;;;25.40;64.30;;;;;;5025606;28;20054;-48
2021/05/06 10:37:35;;;;;;;2.60;1.30;;;25.40;64.70;;;;;;5017987;28;20049;-48
2021/05/06 10:40:23;;;;;;;1.58;1.02;;;25.60;64.80;;;;;;5026718;28;20057;-48
2021/05/06 10:42:53;;;;;;;3.58;1.80;;;25.90;63.80;;;;;;5031947;28;20061;-48
2021/05/06 10:45:21;;;;;;;2.75;1.75;;;26.10;63.10;;;;;;5057649;28;20057;-50
2021/05/06 10:47:49;;;;;;;4.90;1.63;;;26.10;63.10;;;;;;5001206;28;20415;-48
2021/05/06 10:50:34;;;;;;;2.58;1.55;;;26.10;62.80;;;;;;5021553;28;20052;-49
2021/05/06 10:53:04;;;;;;;3.70;1.63;;;26.10;62.80;;;;;;5018148;28;20570;-50
2021/05/06 10:55:37;;;;;;;2.90;1.55;;;26.00;62.70;;;;;;5049211;28;20081;-50
2021/05/06 10:58:32;;;;;;;3.78;1.50;;;25.80;63.00;;;;;;5021400;28;20049;-52
2021/05/06 11:01:08;;;;;;;8.80;1.60;;;25.80;64.10;;;;;;5018473;28;20092;-50
2021/05/06 11:03:36;;;;;;;6.40;1.50;;;25.70;62.40;;;;;;5022659;28;20136;-51
2021/05/06 11:06:04;;;;;;;3.78;1.80;;;25.10;62.80;;;;;;5018909;28;20408;-50
2021/05/06 11:08:34;;;;;;;3.92;1.42;;;25.10;62.60;;;;;;5036944;28;20060;-49
2021/05/06 11:11:06;;;;;;;3.80;1.67;;;25.30;63.60;;;;;;5031067;28;20045;-48
2021/05/06 11:14:01;;;;;;;3.15;1.40;;;25.50;63.50;;;;;;5025271;28;20061;-50
2021/05/06 11:16:29;;;;;;;2.85;1.45;;;25.00;62.40;;;;;;5031580;28;20077;-48
2021/05/06 11:18:57;;;;;;;2.45;1.67;;;25.10;62.40;;;;;;5014276;28;20144;-49
2021/05/06 11:21:31;;;;;;;5.53;1.70;;;25.30;62.10;;;;;;4999036;28;20496;-50
2021/05/06 11:24:21;;;;;;;4.88;1.50;;;25.30;62.50;;;;;;5004029;28;20045;-50
2021/05/06 11:27:13;;;;;;;4.55;1.42;;;25.70;61.40;;;;;;5016221;28;20420;-48
2021/05/06 11:29:42;;;;;;;3.20;1.65;;;25.80;62.40;;;;;;5044395;28;20144;-48
2021/05/06 11:32:31;;;;;;;2.38;1.38;;;25.70;61.40;;;;;;5015247;28;20054;-48
2021/05/06 11:34:59;;;;;;;3.58;1.80;;;25.80;61.30;;;;;;5018709;28;20061;-50
2021/05/06 11:37:29;;;;;;;5.38;1.75;;;26.10;61.60;;;;;;5017468;28;20172;-49
2021/05/06 11:40:03;;;;;;;46.35;6.63;;;25.90;61.60;;;;;;5022124;28;20053;-47
2021/05/06 11:42:37;;;;;;;8.50;2.38;;;25.70;62.60;;;;;;5033892;28;20061;-48
2021/05/06 11:45:08;;;;;;;3.83;2.17;;;25.60;61.60;;;;;;5024268;28;20053;-48
2021/05/06 11:47:35;;;;;;;3.53;1.80;;;25.70;61.60;;;;;;5001339;28;20049;-46
2021/05/06 11:50:21;;;;;;;17.10;3.25;;;25.70;62.70;;;;;;5023424;28;20042;-46
2021/05/06 11:52:50;;;;;;;8.45;2.47;;;25.50;62.50;;;;;;5018092;28;20088;-46
2021/05/06 11:55:49;;;;;;;29.13;7.18;;;25.30;63.30;;;;;;5024316;28;20100;-46
2021/05/06 11:58:25;;;;;;;21.48;4.28;;;25.40;64.50;;;;;;5011497;28;20393;-48
2021/05/06 12:00:54;;;;;;;21.92;5.07;;;25.20;66.10;;;;;;5019543;28;20050;-46
2021/05/06 12:03:34;;;;;;;27.88;7.43;;;25.20;66.30;;;;;;5036123;28;20412;-46
2021/05/06 12:06:02;;;;;;;9.57;3.00;;;25.30;66.30;;;;;;5002036;28;20050;-49
2021/05/06 12:08:33;;;;;;;3.83;1.90;;;25.30;65.80;;;;;;5020675;28;20046;-46
2021/05/06 12:11:04;;;;;;;5.60;2.28;;;25.40;64.90;;;;;;5020042;28;20064;-46
2021/05/06 12:13:35;;;;;;;7.10;1.85;;;25.10;64.90;;;;;;5023165;28;20448;-46
2021/05/06 12:16:14;;;;;;;2.60;1.80;;;24.90;64.90;;;;;;5030052;28;20057;-48
2021/05/06 12:18:53;;;;;;;5.20;2.63;;;24.90;64.80;;;;;;5028982;28;20042;-46
2021/05/06 12:21:48;;;;;;;4.45;1.80;;;25.00;65.30;;;;;;5015563;28;20519;-46
2021/05/06 12:24:32;;;;;;;3.90;1.92;;;25.00;64.80;;;;;;5025438;28;20184;-45
2021/05/06 12:27:14;;;;;;;3.33;1.80;;;24.90;64.10;;;;;;4997467;28;20546;-46
2021/05/06 12:29:43;;;;;;;3.22;1.60;;;24.80;64.20;;;;;;5052830;28;20052;-45
2021/05/06 12:32:27;;;;;;;5.80;1.60;;;24.80;64.40;;;;;;5014026;28;20065;-47
2021/05/06 12:34:56;;;;;;;4.57;1.65;;;25.10;64.30;;;;;;5014618;28;20053;-46
2021/05/06 12:37:29;;;;;;;5.55;1.98;;;25.20;64.20;;;;;;5016669;28;20080;-46
2021/05/06 12:39:57;;;;;;;3.25;1.70;;;25.00;63.40;;;;;;5013814;28;20054;-46
2021/05/06 12:42:33;;;;;;;4.32;1.65;;;24.80;63.00;;;;;;5047739;28;20107;-46
2021/05/06 12:45:02;;;;;;;4.53;1.63;;;24.90;63.80;;;;;;5023484;28;20058;-46
2021/05/06 12:47:32;;;;;;;4.20;1.88;;;24.80;64.10;;;;;;5017353;28;20140;-47
2021/05/06 12:50:14;;;;;;;8.93;2.28;;;24.90;64.60;;;;;;5033437;28;20088;-45
2021/05/06 12:52:46;;;;;;;4.72;1.67;;;24.90;64.50;;;;;;5014319;28;20054;-46
2021/05/06 12:55:30;;;;;;;3.60;2.10;;;25.10;62.80;;;;;;5024243;28;20049;-46
2021/05/06 12:58:13;;;;;;;3.20;1.80;;;25.10;63.00;;;;;;5027403;28;20123;-45
2021/05/06 13:00:46;;;;;;;4.72;1.73;;;25.00;62.00;;;;;;5042678;28;20167;-47
2021/05/06 13:03:15;;;;;;;4.25;2.05;;;25.10;61.50;;;;;;5025258;28;20492;-46
2021/05/06 13:05:45;;;;;;;4.60;1.73;;;25.10;61.90;;;;;;5027649;28;20072;-47
2021/05/06 13:08:13;;;;;;;4.15;1.67;;;25.00;64.40;;;;;;5026793;28;20125;-46
2021/05/06 13:10:43;;;;;;;6.18;1.70;;;24.90;64.70;;;;;;5019815;28;20140;-46
2021/05/06 13:13:33;;;;;;;4.30;1.90;;;24.90;65.40;;;;;;4999023;28;20057;-46
2021/05/06 13:16:00;;;;;;;2.67;1.67;;;24.80;65.30;;;;;;5029850;28;20144;-45
2021/05/06 13:18:28;;;;;;;5.57;2.72;;;24.50;65.90;;;;;;5023218;28;20418;-45
2021/05/06 13:20:56;;;;;;;3.20;1.83;;;24.50;67.40;;;;;;5012801;28;20056;-46
2021/05/06 13:23:26;;;;;;;3.22;1.77;;;24.50;67.40;;;;;;5015230;28;20141;-46
2021/05/06 13:25:56;;;;;;;4.65;2.40;;;24.50;66.70;;;;;;5029061;28;20045;-48
2021/05/06 13:28:31;;;;;;;4.30;1.85;;;24.40;66.00;;;;;;5023327;28;20581;-45
2021/05/06 13:31:20;;;;;;;4.50;1.98;;;24.50;69.10;;;;;;5029201;28;20081;-45
2021/05/06 13:33:52;;;;;;;4.78;1.95;;;24.80;70.60;;;;;;5023097;28;20095;-46
2021/05/06 13:36:21;;;;;;;6.05;2.40;;;24.80;72.00;;;;;;5010858;28;20535;-46
2021/05/06 13:38:59;;;;;;;4.63;2.80;;;24.90;71.60;;;;;;5017915;28;20407;-47
2021/05/06 13:41:38;;;;;;;4.10;1.85;;;25.00;72.30;;;;;;5013760;28;20062;-46
2021/05/06 13:44:07;;;;;;;3.97;2.20;;;25.00;71.60;;;;;;5001884;28;20145;-46
2021/05/06 13:47:10;;;;;;;6.20;2.17;;;24.90;71.70;;;;;;4996436;28;20060;-46
2021/05/06 13:49:37;;;;;;;5.43;2.05;;;24.90;71.30;;;;;;5054257;28;20060;-46
2021/05/06 13:52:05;;;;;;;3.47;1.83;;;25.10;69.80;;;;;;5031547;28;20049;-47
2021/05/06 13:54:32;;;;;;;2.30;1.65;;;25.10;68.60;;;;;;5033328;28;20465;-46
2021/05/06 13:57:00;;;;;;;3.70;1.75;;;25.20;68.90;;;;;;5011884;28;20050;-46
2021/05/06 13:59:27;;;;;;;5.15;2.10;;;25.20;68.70;;;;;;5021139;28;20049;-46
2021/05/06 14:01:56;;;;;;;5.85;2.40;;;25.30;69.80;;;;;;5031587;28;20085;-46
2021/05/06 14:04:24;;;;;;;10.30;1.75;;;25.30;71.90;;;;;;5023588;28;20045;-45
2021/05/06 14:06:52;;;;;;;3.78;2.15;;;25.20;72.00;;;;;;5012043;28;20069;-46
2021/05/06 14:09:21;;;;;;;7.60;2.22;;;25.10;72.00;;;;;;5023325;28;20049;-47
2021/05/06 14:11:50;;;;;;;6.15;2.60;;;25.10;73.10;;;;;;5028895;28;20045;-46
2021/05/06 14:14:18;;;;;;;4.80;2.60;;;25.10;73.10;;;;;;5024741;28;20049;-46
2021/05/06 14:16:46;;;;;;;3.08;1.80;;;25.00;72.60;;;;;;5012495;28;20200;-47
2021/05/06 14:19:14;;;;;;;3.95;1.70;;;24.80;73.30;;;;;;5034574;28;20041;-46
2021/05/06 14:21:46;;;;;;;4.07;2.10;;;24.80;73.50;;;;;;5032062;28;20084;-46
2021/05/06 14:24:14;;;;;;;4.60;2.15;;;24.70;74.00;;;;;;5022429;28;20196;-46
2021/05/06 14:26:44;;;;;;;3.45;1.60;;;24.50;74.40;;;;;;5012218;28;20480;-46
2021/05/06 14:29:13;;;;;;;6.53;2.20;;;24.50;74.20;;;;;;5001111;28;20050;-46
2021/05/06 14:31:40;;;;;;;4.65;2.00;;;24.50;74.90;;;;;;5012123;28;20042;-46
2021/05/06 14:34:08;;;;;;;11.00;2.13;;;24.40;73.30;;;;;;5012433;28;20050;-46
2021/05/06 14:36:36;;;;;;;4.38;2.45;;;24.40;72.90;;;;;;5011961;28;20055;-45
2021/05/06 14:39:04;;;;;;;7.80;2.28;;;24.30;72.80;;;;;;5003188;28;20052;-46
2021/05/06 14:41:33;;;;;;;4.30;1.83;;;24.30;72.70;;;;;;5028026;28;20058;-47
2021/05/06 14:44:01;;;;;;;3.75;2.05;;;24.30;73.00;;;;;;5006564;28;20507;-45
2021/05/06 14:46:28;;;;;;;4.00;2.25;;;24.20;72.50;;;;;;5013231;28;20104;-45
2021/05/06 14:48:55;;;;;;;5.05;1.90;;;24.00;72.50;;;;;;5021130;28;20571;-46
2021/05/06 14:51:23;;;;;;;6.00;2.58;;;23.90;71.90;;;;;;5013608;28;20093;-46
2021/05/06 14:53:50;;;;;;;11.80;2.40;;;23.80;72.70;;;;;;5017339;28;20392;-47
2021/05/06 14:56:18;;;;;;;4.53;2.15;;;23.70;73.00;;;;;;5011350;28;20500;-46
2021/05/06 14:58:45;;;;;;;8.50;2.22;;;23.70;74.00;;;;;;5025339;28;20053;-47
2021/05/06 15:01:12;;;;;;;6.28;1.98;;;23.70;73.90;;;;;;5013934;28;20066;-46
2021/05/06 15:03:40;;;;;;;4.72;2.20;;;23.70;72.90;;;;;;5032960;28;20080;-45
2021/05/06 15:06:08;;;;;;;5.03;2.10;;;23.60;73.10;;;;;;5027994;28;20391;-46
2021/05/06 15:08:41;;;;;;;4.85;1.95;;;23.50;73.00;;;;;;5024788;28;20069;-46
2021/05/06 15:11:11;;;;;;;;;;;23.40;73.00;;;;;;4998216;28;20459;-45
2021/05/06 15:13:39;;;;;;;8.88;3.13;;;23.40;73.00;;;;;;5001886;28;19921;-45
2021/05/06 15:16:06;;;;;;;9.57;2.58;;;23.40;73.60;;;;;;5031084;28;20165;-47
2021/05/06 15:18:34;;;;;;;4.95;2.88;;;23.30;73.90;;;;;;5021538;28;20057;-46
2021/05/06 15:21:02;;;;;;;6.82;2.83;;;23.20;74.60;;;;;;5019821;28;20066;-46
2021/05/06 15:23:29;;;;;;;3.63;2.13;;;23.20;74.10;;;;;;5021000;28;20065;-48
2021/05/06 15:25:56;;;;;;;10.02;3.55;;;23.10;73.20;;;;;;5019462;28;20503;-46
2021/05/06 15:28:24;;;;;;;6.10;2.90;;;23.00;73.70;;;;;;5021197;28;20049;-45
2021/05/06 15:30:54;;;;;;;4.32;1.90;;;22.90;74.00;;;;;;4998230;28;20046;-45
2021/05/06 15:33:21;;;;;;;6.43;2.13;;;22.90;74.60;;;;;;5035842;28;20489;-45
2021/05/06 15:35:49;;;;;;;7.68;2.45;;;22.80;74.30;;;;;;5019947;28;20050;-45
2021/05/06 15:38:19;;;;;;;5.78;2.53;;;22.90;74.90;;;;;;5018763;28;20172;-46
2021/05/06 15:40:51;;;;;;;4.18;1.75;;;22.90;75.40;;;;;;5020284;28;20046;-45
2021/05/06 15:43:19;;;;;;;4.43;2.00;;;22.80;74.60;;;;;;5020355;28;20469;-45
2021/05/06 15:45:55;;;;;;;2.58;1.55;;;22.80;74.00;;;;;;5004303;28;20432;-46
2021/05/06 15:48:23;;;;;;;3.95;2.10;;;22.80;73.60;;;;;;5036208;28;20049;-46
2021/05/06 15:50:50;;;;;;;5.80;1.50;;;22.70;74.00;;;;;;5020980;28;20480;-46
2021/05/06 15:53:19;;;;;;;3.97;2.00;;;22.70;74.20;;;;;;5018972;28;20132;-45
2021/05/06 15:55:46;;;;;;;3.42;1.80;;;22.70;74.40;;;;;;5020517;28;20050;-47
2021/05/06 15:58:13;;;;;;;7.13;2.00;;;22.70;75.00;;;;;;5019215;28;20046;-45
2021/05/06 16:00:41;;;;;;;4.15;2.00;;;22.60;75.30;;;;;;5022180;28;20496;-46
2021/05/06 16:03:13;;;;;;;4.55;2.30;;;22.60;75.70;;;;;;5035452;28;20045;-46
2021/05/06 16:05:45;;;;;;;5.75;2.00;;;22.60;75.90;;;;;;5010698;28;20046;-46
2021/05/06 16:08:12;;;;;;;5.57;2.63;;;22.60;75.70;;;;;;4999252;28;20391;-46
2021/05/06 16:10:40;;;;;;;3.20;2.00;;;22.60;75.90;;;;;;5026886;28;20495;-45
2021/05/06 16:13:07;;;;;;;3.75;1.67;;;22.50;75.90;;;;;;5027420;28;20041;-45
2021/05/06 16:15:35;;;;;;;6.63;1.67;;;22.50;76.10;;;;;;5005843;28;20127;-46
2021/05/06 16:18:02;;;;;;;3.30;1.95;;;22.50;76.10;;;;;;5016733;28;20415;-47
2021/05/06 16:20:39;;;;;;;2.95;2.15;;;22.50;74.90;;;;;;5023495;28;20046;-45
2021/05/06 16:23:11;;;;;;;3.80;2.00;;;22.40;74.20;;;;;;5018328;28;20073;-46
2021/05/06 16:25:40;;;;;;;3.05;1.90;;;22.30;74.30;;;;;;5020315;28;20444;-46